Aérodrome :
LOGIN :

S'inscrire | Disclaimer

   EN    FR    IT 

 










Légende :    VFR   VFR Marginal   IFR   IFR Intensif   IFR Très Intensif
Visi : 
Plafond : 
>= 8 km
>= 3000ft
5 à 8 km
1000 à 3000 ft
1500m à 5 km
500 à 1000 ft
800 à 1500m
200 à 500 ft
< 800m
< 200 ft
Symboles :   Orages  Brouillard  Fortes neiges  Fortes précipitations  Vent > 20 kt
SIGMETs :   Divers  Orages  Givrage  Turbulence  Onde Orograph.  Cendres Volcan.






- Altitude de l'aérodrome : 63 ft
- Code IATA : BZM


EHWO - Woensdrecht Airbase

DERNIER METAR :
  • 280855Z AUTO 19004KT 140V220 9999 OVC130 04/00 Q1016 BLU NOSIG

METARs EXPIRÉS :
  • 280825Z AUTO 22006KT 9999 OVC130 03/M00 Q1016 BLU NOSIG
  • 280755Z AUTO 21005KT 170V250 9999 OVC130 02/M00 Q1016 BLU NOSIG
  • 280725Z AUTO 22005KT 9999 OVC150 02/M01 Q1016 BLU NOSIG
  • 280655Z AUTO 22004KT 9999 OVC160 02/M00 Q1016 BLU NOSIG
  • 280625Z AUTO 23007KT 190V250 9999 OVC190 02/M00 Q1016 BLU

TAF TAF EHWO
Valide du 28 à 06h jusqu'au 28 à 18h UTC


280523Z 2806/2818 21008KT 9999 FEW025
BECMG 2810/2813 19015G25KT
BECMG 2815/2817 SCT010 BKN015
TEMPO 2816/2818 3000 DZRA SCT005 BKN008



MET'MAP, la Météo Aéronautique d'un coup d'oeil ! - Copyright ORBIFLY Décembre 2007 - Disclaimer

ORBIFLY MET'MAP TEAM :

Programmation & Développement : Alexandra Zaïnal
Sur une idée originale de : Baudouin d'Aumeries
Assistance à la programmation : Marc-Olivier Méhu
Soutien technique & logistique : Manuel Goepfert

Contact : metmap@orbifly.com




SOURCES & CREDITS :

   NOAA